Time;durP1;ratioP1;P1;durP2;ratioP2;P2;SDS_P1;SDS_P2;PMS_P1;PMS_P2;Temp;Humidity;BMP_temperature;BMP_pressure;BME280_temperature;BME280_humidity;BME280_pressure;Samples;Min_cycle;Max_cycle;Signal;HPM_P1;HPM_P2
2021/08/14 00:01:10;;;;;;;4.00;3.80;;;23.10;49.10;;;;;;5036539;28;20038;-83
2021/08/14 00:03:36;;;;;;;4.38;4.18;;;23.10;49.30;;;;;;5016411;28;20037;-84
2021/08/14 00:06:02;;;;;;;4.30;4.10;;;23.00;49.30;;;;;;5032577;28;20034;-84
2021/08/14 00:08:28;;;;;;;4.13;3.92;;;23.00;49.40;;;;;;5036920;28;20363;-83
2021/08/14 00:10:55;;;;;;;4.68;4.30;;;22.90;49.40;;;;;;5036879;28;20044;-84
2021/08/14 00:13:21;;;;;;;4.15;3.95;;;22.90;49.50;;;;;;5035509;28;20506;-84
2021/08/14 00:15:47;;;;;;;4.18;3.97;;;22.90;49.50;;;;;;5035919;28;20250;-83
2021/08/14 00:18:13;;;;;;;4.60;4.22;;;22.90;49.50;;;;;;5032608;28;20367;-83
2021/08/14 00:20:39;;;;;;;3.90;3.70;;;22.90;49.60;;;;;;5036908;28;20041;-83
2021/08/14 00:23:05;;;;;;;4.05;3.70;;;22.80;49.60;;;;;;5034177;28;20033;-83
2021/08/14 00:25:31;;;;;;;5.30;4.15;;;22.80;49.70;;;;;;5036554;28;20029;-83
2021/08/14 00:27:57;;;;;;;3.50;3.40;;;22.80;49.80;;;;;;5035827;28;20037;-84
2021/08/14 00:30:23;;;;;;;4.07;3.88;;;22.80;49.80;;;;;;5033525;28;20043;-82
2021/08/14 00:32:51;;;;;;;3.67;3.47;;;22.80;49.90;;;;;;5033388;28;20026;-83
2021/08/14 00:35:18;;;;;;;3.80;3.60;;;22.70;49.90;;;;;;5034183;28;20506;-84
2021/08/14 00:37:44;;;;;;;4.00;3.80;;;22.60;49.90;;;;;;5035825;28;20041;-85
2021/08/14 00:40:10;;;;;;;3.90;3.70;;;22.70;50.00;;;;;;5034881;28;20029;-83
2021/08/14 00:42:36;;;;;;;3.75;3.55;;;22.60;50.00;;;;;;5034168;28;20041;-84
2021/08/14 00:45:03;;;;;;;4.15;3.88;;;22.60;50.10;;;;;;5031093;28;20024;-82
2021/08/14 00:47:29;;;;;;;3.92;3.72;;;22.50;50.20;;;;;;5037683;28;20032;-84
2021/08/14 00:49:56;;;;;;;4.00;3.80;;;22.50;50.20;;;;;;5034638;28;20059;-83
2021/08/14 00:52:22;;;;;;;3.72;3.53;;;22.50;50.30;;;;;;5034688;28;20421;-82
2021/08/14 00:54:48;;;;;;;4.05;3.85;;;22.50;50.40;;;;;;5035997;28;20021;-83
2021/08/14 00:57:15;;;;;;;4.20;4.00;;;22.40;50.40;;;;;;5032268;28;20025;-83
2021/08/14 00:59:45;;;;;;;3.70;3.50;;;22.40;50.50;;;;;;5033678;28;20038;-83
2021/08/14 01:02:11;;;;;;;3.97;3.78;;;22.40;50.50;;;;;;5035653;28;20056;-84
2021/08/14 01:04:37;;;;;;;4.18;3.97;;;22.40;50.60;;;;;;5017927;28;20026;-83
2021/08/14 01:07:03;;;;;;;4.68;4.38;;;22.30;50.60;;;;;;5035437;28;20034;-83
2021/08/14 01:09:29;;;;;;;4.00;3.80;;;22.30;50.70;;;;;;5034382;28;20025;-83
2021/08/14 01:11:59;;;;;;;4.20;4.00;;;22.30;50.70;;;;;;5032567;28;20025;-83
2021/08/14 01:14:25;;;;;;;4.18;3.97;;;22.30;50.70;;;;;;5035365;28;20038;-84
2021/08/14 01:16:52;;;;;;;4.07;3.88;;;22.30;51.30;;;;;;5032937;28;20041;-83
2021/08/14 01:19:18;;;;;;;4.30;4.10;;;22.30;50.80;;;;;;5035300;28;20052;-83
2021/08/14 01:21:51;;;;;;;4.00;3.80;;;22.30;50.80;;;;;;5018009;28;20037;-84
2021/08/14 01:24:18;;;;;;;4.18;3.97;;;22.30;50.80;;;;;;5032348;28;20029;-83
2021/08/14 01:26:44;;;;;;;3.88;3.67;;;22.30;50.90;;;;;;5033327;28;20370;-84
2021/08/14 01:29:11;;;;;;;4.03;3.83;;;22.30;51.00;;;;;;5035912;28;20041;-84
2021/08/14 01:31:37;;;;;;;4.40;4.20;;;22.30;51.10;;;;;;5034678;28;20044;-83
2021/08/14 01:34:03;;;;;;;4.00;3.80;;;22.20;51.10;;;;;;5035000;28;20406;-84
2021/08/14 01:36:29;;;;;;;4.10;3.90;;;22.20;51.20;;;;;;5015880;28;20036;-82
2021/08/14 01:38:59;;;;;;;4.00;3.75;;;22.20;51.20;;;;;;5030865;28;20028;-84
2021/08/14 01:41:25;;;;;;;4.05;3.85;;;22.20;51.30;;;;;;5035783;28;20060;-84
2021/08/14 01:43:58;;;;;;;4.05;3.85;;;22.10;51.40;;;;;;5033497;28;20033;-83
2021/08/14 01:46:26;;;;;;;3.92;3.72;;;22.10;51.50;;;;;;5034517;28;20498;-83
2021/08/14 01:48:52;;;;;;;4.20;4.00;;;22.10;51.60;;;;;;5034936;28;20036;-84
2021/08/14 01:51:19;;;;;;;4.07;3.88;;;22.00;51.60;;;;;;5014441;28;20032;-83
2021/08/14 01:53:46;;;;;;;3.90;3.70;;;21.90;51.70;;;;;;5033188;28;20017;-83
2021/08/14 01:56:13;;;;;;;3.95;3.75;;;21.90;51.80;;;;;;5036003;28;20034;-83
2021/08/14 01:58:39;;;;;;;3.90;3.70;;;21.80;51.90;;;;;;5033509;28;20048;-83
2021/08/14 02:01:05;;;;;;;4.05;3.85;;;21.80;51.90;;;;;;5025892;28;20038;-84
2021/08/14 02:03:31;;;;;;;3.88;3.67;;;21.80;52.00;;;;;;5024772;28;20048;-83
2021/08/14 02:05:57;;;;;;;3.63;3.42;;;21.70;52.10;;;;;;5023722;28;20041;-85
2021/08/14 02:08:23;;;;;;;3.80;3.60;;;21.70;52.20;;;;;;5029555;28;20022;-83
2021/08/14 02:10:49;;;;;;;3.53;3.38;;;21.60;52.30;;;;;;5021381;28;20026;-81
2021/08/14 02:13:15;;;;;;;3.95;3.75;;;21.60;52.40;;;;;;5011412;28;20638;-85
2021/08/14 02:15:41;;;;;;;3.80;3.60;;;21.60;53.10;;;;;;5011346;28;20033;-84
2021/08/14 02:18:07;;;;;;;3.30;3.20;;;21.50;52.50;;;;;;5027135;28;20032;-84
2021/08/14 02:20:33;;;;;;;3.40;3.30;;;21.40;52.50;;;;;;5030644;28;20041;-83
2021/08/14 02:22:59;;;;;;;3.42;3.22;;;21.40;52.70;;;;;;5026845;28;20506;-83
2021/08/14 02:25:26;;;;;;;4.10;3.72;;;21.40;52.80;;;;;;5026000;28;20025;-84
2021/08/14 02:27:52;;;;;;;4.07;3.78;;;21.30;52.90;;;;;;5027277;28;20029;-83
2021/08/14 02:30:18;;;;;;;3.60;3.40;;;21.20;53.00;;;;;;5030471;28;20055;-84
2021/08/14 02:32:44;;;;;;;3.72;3.53;;;21.20;53.10;;;;;;5031766;28;20500;-84
2021/08/14 02:35:10;;;;;;;3.30;3.20;;;21.20;53.20;;;;;;5033178;28;20041;-84
2021/08/14 02:37:36;;;;;;;3.67;3.47;;;21.10;53.20;;;;;;5038082;28;20470;-83
2021/08/14 02:40:02;;;;;;;3.90;3.70;;;21.10;53.20;;;;;;5045495;28;20033;-84
2021/08/14 02:42:31;;;;;;;3.60;3.40;;;21.10;53.40;;;;;;5035219;28;20064;-83
2021/08/14 02:44:57;;;;;;;3.38;3.28;;;21.10;53.50;;;;;;5033732;28;20030;-83
2021/08/14 02:47:24;;;;;;;3.40;3.20;;;21.00;53.50;;;;;;5039721;28;20037;-83
2021/08/14 02:49:50;;;;;;;3.40;3.30;;;21.00;53.50;;;;;;5038062;28;20028;-83
2021/08/14 02:52:16;;;;;;;3.20;3.10;;;21.00;53.60;;;;;;5037968;28;20049;-82
2021/08/14 02:54:42;;;;;;;3.17;3.08;;;21.00;53.70;;;;;;5038331;28;20013;-83
2021/08/14 02:57:08;;;;;;;3.35;3.15;;;20.90;53.70;;;;;;5031842;28;20033;-83
2021/08/14 02:59:34;;;;;;;3.35;3.20;;;20.90;53.70;;;;;;5051296;28;20032;-85
2021/08/14 03:02:00;;;;;;;3.20;3.10;;;20.90;53.80;;;;;;5036486;28;20056;-83
2021/08/14 03:04:26;;;;;;;3.20;3.10;;;20.90;53.90;;;;;;5037751;28;20021;-83
2021/08/14 03:06:56;;;;;;;3.20;3.10;;;20.90;54.00;;;;;;5037925;28;20032;-84
2021/08/14 03:09:22;;;;;;;3.25;3.08;;;20.90;54.10;;;;;;5034405;28;20029;-83
2021/08/14 03:11:49;;;;;;;3.08;2.97;;;20.80;54.20;;;;;;5034908;28;20037;-83
2021/08/14 03:14:15;;;;;;;3.15;3.05;;;20.70;54.40;;;;;;5039138;28;20029;-85
2021/08/14 03:16:41;;;;;;;2.95;2.85;;;20.70;54.50;;;;;;5034468;28;20049;-83
2021/08/14 03:19:07;;;;;;;3.13;2.92;;;20.70;54.60;;;;;;5037508;28;20036;-84
2021/08/14 03:21:33;;;;;;;3.83;3.53;;;20.60;54.70;;;;;;5018081;28;20481;-83
2021/08/14 03:23:59;;;;;;;3.13;3.03;;;20.60;54.80;;;;;;5034381;28;20033;-83
2021/08/14 03:26:25;;;;;;;3.17;3.00;;;20.60;54.90;;;;;;5037777;28;20482;-83
2021/08/14 03:28:54;;;;;;;3.20;3.05;;;20.60;54.90;;;;;;5037386;28;20025;-83
2021/08/14 03:31:21;;;;;;;3.90;3.60;;;20.60;55.00;;;;;;5035206;28;20037;-83
2021/08/14 03:33:47;;;;;;;3.55;3.25;;;20.50;55.00;;;;;;5035186;28;20040;-83
2021/08/14 03:36:14;;;;;;;3.00;2.90;;;20.50;55.10;;;;;;5032249;28;20026;-83
2021/08/14 03:38:40;;;;;;;3.70;3.40;;;20.50;55.20;;;;;;5035870;28;20029;-85
2021/08/14 03:41:08;;;;;;;3.00;2.80;;;20.40;55.20;;;;;;5034748;28;20041;-83
2021/08/14 03:43:37;;;;;;;3.40;3.20;;;20.40;55.40;;;;;;5034127;28;20226;-83
2021/08/14 03:46:04;;;;;;;2.80;2.70;;;20.40;55.50;;;;;;5034991;28;20501;-83
2021/08/14 03:48:31;;;;;;;3.42;3.22;;;20.40;55.50;;;;;;5034518;28;20032;-84
2021/08/14 03:50:57;;;;;;;3.50;3.30;;;20.40;55.60;;;;;;5032943;28;20030;-83
2021/08/14 03:53:23;;;;;;;3.00;2.90;;;20.40;55.60;;;;;;5038833;28;20379;-83
2021/08/14 03:55:49;;;;;;;2.72;2.63;;;20.40;55.60;;;;;;5033915;28;20041;-83
2021/08/14 03:58:15;;;;;;;3.10;3.00;;;20.40;55.70;;;;;;5037120;28;20493;-82
2021/08/14 04:00:41;;;;;;;3.00;2.90;;;20.30;55.70;;;;;;5036277;28;20041;-83
2021/08/14 04:03:08;;;;;;;3.10;3.00;;;20.30;55.80;;;;;;5032339;28;20097;-83
2021/08/14 04:05:34;;;;;;;2.78;2.67;;;20.30;55.80;;;;;;5037389;28;20025;-83
2021/08/14 04:08:00;;;;;;;3.50;3.30;;;20.20;56.10;;;;;;5036707;28;20391;-83
2021/08/14 04:10:26;;;;;;;2.97;2.88;;;20.20;56.30;;;;;;5035058;28;20055;-83
2021/08/14 04:12:52;;;;;;;2.78;2.67;;;20.10;56.50;;;;;;5035468;28;20509;-84
2021/08/14 04:15:18;;;;;;;3.30;3.05;;;20.10;56.60;;;;;;5030335;28;20037;-83
2021/08/14 04:17:44;;;;;;;8.73;3.20;;;20.00;56.60;;;;;;5036421;28;20482;-83
2021/08/14 04:20:10;;;;;;;2.95;2.85;;;20.00;56.70;;;;;;5036095;28;20049;-83
2021/08/14 04:22:37;;;;;;;3.00;2.90;;;20.00;56.70;;;;;;5018631;28;20045;-87
2021/08/14 04:25:03;;;;;;;3.00;2.90;;;20.00;56.80;;;;;;5036333;28;20386;-83
2021/08/14 04:27:29;;;;;;;3.00;2.90;;;20.00;56.80;;;;;;5035029;28;20036;-83
2021/08/14 04:29:55;;;;;;;2.92;2.83;;;20.00;56.80;;;;;;5034214;28;20033;-82
2021/08/14 04:32:21;;;;;;;2.90;2.78;;;20.00;56.80;;;;;;5050965;28;20506;-84
2021/08/14 04:34:48;;;;;;;2.97;2.78;;;20.00;56.80;;;;;;5034735;28;20052;-83
2021/08/14 04:37:15;;;;;;;3.40;3.10;;;20.00;56.90;;;;;;5040357;28;20489;-83
2021/08/14 04:39:41;;;;;;;3.40;3.13;;;20.00;57.00;;;;;;5047236;28;20048;-83
2021/08/14 04:42:07;;;;;;;3.15;2.95;;;20.00;57.00;;;;;;5030760;28;20042;-83
2021/08/14 04:44:33;;;;;;;2.97;2.88;;;20.00;57.10;;;;;;5037716;28;20037;-84
2021/08/14 04:47:01;;;;;;;2.95;2.85;;;19.90;57.10;;;;;;5046489;28;20037;-83
2021/08/14 04:49:27;;;;;;;3.40;3.10;;;19.90;57.10;;;;;;5040707;28;20033;-82
2021/08/14 04:51:54;;;;;;;2.97;2.88;;;19.90;57.20;;;;;;5035300;28;20031;-83
2021/08/14 04:54:20;;;;;;;3.63;3.30;;;19.90;57.30;;;;;;5031199;28;20077;-82
2021/08/14 04:56:46;;;;;;;3.30;3.10;;;19.90;57.40;;;;;;5035105;28;20025;-82
2021/08/14 04:59:12;;;;;;;2.80;2.70;;;19.80;57.40;;;;;;5050099;28;20478;-83
2021/08/14 05:01:38;;;;;;;3.00;2.90;;;19.80;58.10;;;;;;5034089;28;20041;-84
2021/08/14 05:04:04;;;;;;;3.13;2.92;;;19.80;57.50;;;;;;5035673;28;20029;-83
2021/08/14 05:06:30;;;;;;;3.15;2.95;;;19.80;57.50;;;;;;5034089;28;20047;-84
2021/08/14 05:08:56;;;;;;;2.88;2.78;;;19.80;57.50;;;;;;5031283;28;20038;-83
2021/08/14 05:11:22;;;;;;;2.90;2.80;;;19.80;57.50;;;;;;5037415;28;20374;-83
2021/08/14 05:13:49;;;;;;;2.80;2.70;;;19.80;57.50;;;;;;5032094;28;20513;-83
2021/08/14 05:16:15;;;;;;;2.88;2.78;;;19.80;57.60;;;;;;5034916;28;20041;-85
2021/08/14 05:18:41;;;;;;;2.80;2.70;;;19.80;57.60;;;;;;5035368;28;20470;-83
2021/08/14 05:21:07;;;;;;;3.05;2.95;;;19.80;57.70;;;;;;5029589;28;20034;-83
2021/08/14 05:23:33;;;;;;;2.90;2.80;;;19.80;57.80;;;;;;5037449;28;20037;-84
2021/08/14 05:25:59;;;;;;;3.05;2.90;;;19.80;57.80;;;;;;5034392;28;20038;-83
2021/08/14 05:28:25;;;;;;;2.95;2.85;;;19.80;57.90;;;;;;5035466;28;20036;-84
2021/08/14 05:30:51;;;;;;;3.15;3.00;;;19.80;57.90;;;;;;5033580;28;20029;-83
2021/08/14 05:33:17;;;;;;;3.20;2.95;;;19.70;57.90;;;;;;5029054;28;20502;-84
2021/08/14 05:35:43;;;;;;;3.08;2.90;;;19.80;58.00;;;;;;5034788;28;20032;-83
2021/08/14 05:38:09;;;;;;;2.85;2.75;;;19.70;58.10;;;;;;5034438;28;20037;-83
2021/08/14 05:40:35;;;;;;;2.75;2.65;;;19.80;58.10;;;;;;5035188;28;20036;-82
2021/08/14 05:43:03;;;;;;;3.22;3.03;;;19.80;58.10;;;;;;5032194;28;20481;-81
2021/08/14 05:45:29;;;;;;;2.90;2.80;;;19.80;58.00;;;;;;5045675;28;20502;-83
2021/08/14 05:47:56;;;;;;;3.08;2.97;;;19.90;58.00;;;;;;5031277;28;20030;-84
2021/08/14 05:50:22;;;;;;;3.00;2.90;;;20.00;57.90;;;;;;5035076;28;20471;-84
2021/08/14 05:52:48;;;;;;;3.20;3.10;;;20.10;57.80;;;;;;5033709;28;20030;-83
2021/08/14 05:55:14;;;;;;;3.30;3.20;;;20.30;57.60;;;;;;5034794;28;20033;-83
2021/08/14 05:57:41;;;;;;;2.97;2.88;;;20.50;57.50;;;;;;5034759;28;20036;-82
2021/08/14 06:00:07;;;;;;;3.70;3.50;;;20.60;57.30;;;;;;5028632;28;20502;-83
2021/08/14 06:02:33;;;;;;;3.40;3.20;;;20.80;57.10;;;;;;5039667;28;20033;-82
2021/08/14 06:04:59;;;;;;;5.00;4.20;;;21.00;56.90;;;;;;5041121;28;20029;-83
2021/08/14 06:07:25;;;;;;;3.40;3.30;;;21.10;56.80;;;;;;5040222;28;20029;-83
2021/08/14 06:09:51;;;;;;;4.22;4.03;;;21.30;56.60;;;;;;5041433;28;20027;-84
2021/08/14 06:12:18;;;;;;;4.53;3.60;;;21.40;56.40;;;;;;5035702;28;20037;-83
2021/08/14 06:14:44;;;;;;;3.55;3.38;;;21.50;56.40;;;;;;5041258;28;20026;-83
2021/08/14 06:17:10;;;;;;;3.63;3.42;;;21.60;56.30;;;;;;5041388;28;20030;-83
2021/08/14 06:19:36;;;;;;;3.90;3.70;;;21.80;56.30;;;;;;5039871;28;20044;-84
2021/08/14 06:22:03;;;;;;;3.70;3.50;;;21.80;56.20;;;;;;5040799;28;20048;-83
2021/08/14 06:24:29;;;;;;;4.35;3.95;;;21.80;56.10;;;;;;5039743;28;20394;-83
2021/08/14 06:26:55;;;;;;;3.88;3.67;;;21.80;56.20;;;;;;5037151;28;20024;-84
2021/08/14 06:29:21;;;;;;;4.00;3.80;;;21.90;56.20;;;;;;5041975;28;20501;-84
2021/08/14 06:31:48;;;;;;;4.20;4.00;;;22.00;56.10;;;;;;5039477;28;20029;-83
2021/08/14 06:34:14;;;;;;;4.72;4.53;;;22.10;56.00;;;;;;5040597;28;20410;-82
2021/08/14 06:36:40;;;;;;;5.40;4.88;;;22.20;55.80;;;;;;5041263;28;20021;-83
2021/08/14 06:39:06;;;;;;;5.00;4.70;;;22.30;55.80;;;;;;5035542;28;20481;-82
2021/08/14 06:41:32;;;;;;;4.18;3.97;;;22.30;55.80;;;;;;5042143;28;20033;-86
2021/08/14 06:43:58;;;;;;;4.32;4.13;;;22.30;55.80;;;;;;5047355;28;20045;-83
2021/08/14 06:46:25;;;;;;;4.55;4.35;;;22.40;55.80;;;;;;5045842;28;20025;-83
2021/08/14 06:48:51;;;;;;;3.92;3.72;;;22.40;55.70;;;;;;5040389;28;20398;-83
2021/08/14 06:51:17;;;;;;;3.92;3.72;;;22.50;55.60;;;;;;5035227;28;20033;-84
2021/08/14 06:53:43;;;;;;;4.28;4.07;;;22.60;55.50;;;;;;5040667;28;20479;-84
2021/08/14 06:56:10;;;;;;;3.85;3.65;;;22.70;55.50;;;;;;5041718;28;20029;-84
2021/08/14 06:58:36;;;;;;;3.90;3.67;;;22.70;55.50;;;;;;5041001;28;20030;-84
2021/08/14 07:01:02;;;;;;;3.50;3.30;;;22.70;55.50;;;;;;5039447;28;20033;-85
2021/08/14 07:03:28;;;;;;;4.35;4.05;;;22.70;55.40;;;;;;5037739;28;20041;-84
2021/08/14 07:05:54;;;;;;;3.92;3.72;;;22.80;55.30;;;;;;5037950;28;20033;-84
2021/08/14 07:08:20;;;;;;;4.00;3.80;;;22.90;55.20;;;;;;5042781;28;20039;-84
2021/08/14 07:10:47;;;;;;;4.57;4.35;;;23.00;55.10;;;;;;5038289;28;20044;-84
2021/08/14 07:13:13;;;;;;;4.60;4.25;;;23.10;54.90;;;;;;5038973;28;20041;-83
2021/08/14 07:15:39;;;;;;;6.72;5.40;;;23.20;54.80;;;;;;5036984;28;20033;-84
2021/08/14 07:18:05;;;;;;;5.00;4.80;;;23.40;54.60;;;;;;5033395;28;20041;-84
2021/08/14 07:20:31;;;;;;;6.47;6.18;;;23.50;54.50;;;;;;5038178;28;20060;-84
2021/08/14 07:22:57;;;;;;;6.38;6.07;;;23.60;54.30;;;;;;5037428;28;20049;-83
2021/08/14 07:25:23;;;;;;;4.95;4.75;;;23.70;54.30;;;;;;5037707;28;20025;-84
2021/08/14 07:27:49;;;;;;;4.80;4.57;;;23.90;54.00;;;;;;5037470;28;20036;-84
2021/08/14 07:30:16;;;;;;;4.68;4.47;;;24.10;53.80;;;;;;5030216;28;20045;-85
2021/08/14 07:32:42;;;;;;;4.90;4.60;;;24.10;53.60;;;;;;5037325;28;20040;-85
2021/08/14 07:35:08;;;;;;;4.45;4.25;;;24.30;53.50;;;;;;5036546;28;20404;-84
2021/08/14 07:37:34;;;;;;;5.22;4.93;;;24.40;53.20;;;;;;5036156;28;20493;-84
2021/08/14 07:40:01;;;;;;;8.18;7.78;;;24.60;53.20;;;;;;5037269;28;20040;-84
2021/08/14 07:42:27;;;;;;;9.00;8.57;;;24.70;52.90;;;;;;5034346;28;20038;-84
2021/08/14 07:44:55;;;;;;;9.35;8.95;;;24.80;52.80;;;;;;5033479;28;20021;-83
2021/08/14 07:47:21;;;;;;;10.02;9.52;;;24.80;52.80;;;;;;5036376;28;20044;-84
2021/08/14 07:49:47;;;;;;;9.00;8.60;;;24.90;52.80;;;;;;5035647;28;20418;-83
2021/08/14 07:52:13;;;;;;;8.48;8.07;;;24.90;52.80;;;;;;5036066;28;20029;-84
2021/08/14 07:54:39;;;;;;;8.30;7.90;;;24.90;52.80;;;;;;5036743;28;20497;-84
2021/08/14 07:57:05;;;;;;;9.27;8.77;;;24.90;52.60;;;;;;5032669;28;20042;-84
2021/08/14 07:59:31;;;;;;;7.90;7.50;;;24.90;52.60;;;;;;5038929;28;20036;-84
2021/08/14 08:01:57;;;;;;;9.25;8.52;;;25.10;52.60;;;;;;5033826;28;20045;-85
2021/08/14 08:04:23;;;;;;;6.53;6.22;;;25.10;52.50;;;;;;5036738;28;20044;-85
2021/08/14 08:06:49;;;;;;;6.10;5.80;;;25.30;52.40;;;;;;5035572;28;20024;-85
2021/08/14 08:09:15;;;;;;;5.50;5.20;;;25.40;52.20;;;;;;5032155;28;20025;-82
2021/08/14 08:11:42;;;;;;;5.18;4.97;;;25.50;52.10;;;;;;5036939;28;20029;-85
2021/08/14 08:14:08;;;;;;;5.82;5.53;;;25.60;52.00;;;;;;5037226;28;20036;-84
2021/08/14 08:16:34;;;;;;;7.13;5.68;;;25.60;52.00;;;;;;5034647;28;20049;-84
2021/08/14 08:19:01;;;;;;;5.90;5.60;;;25.60;51.90;;;;;;5036661;28;20021;-84
2021/08/14 08:21:27;;;;;;;6.28;5.97;;;25.70;51.90;;;;;;5032380;28;20021;-84
2021/08/14 08:23:53;;;;;;;6.03;5.72;;;25.80;51.70;;;;;;5033856;28;20025;-86
2021/08/14 08:26:19;;;;;;;6.70;6.40;;;25.90;51.70;;;;;;5036814;28;20028;-84
2021/08/14 08:28:45;;;;;;;6.65;6.30;;;26.10;51.60;;;;;;5034939;28;20402;-87
2021/08/14 08:31:11;;;;;;;7.18;6.82;;;26.30;51.40;;;;;;5035470;28;20042;-85
2021/08/14 08:33:37;;;;;;;6.63;6.32;;;26.40;51.10;;;;;;5034370;28;20041;-85
2021/08/14 08:36:04;;;;;;;8.88;8.48;;;26.50;51.00;;;;;;5030620;28;20518;-85
2021/08/14 08:38:30;;;;;;;9.85;9.38;;;26.60;50.90;;;;;;5037384;28;20048;-85
2021/08/14 08:40:56;;;;;;;6.68;6.38;;;26.70;50.80;;;;;;5034202;28;20041;-84
2021/08/14 08:43:22;;;;;;;9.27;8.88;;;26.80;50.70;;;;;;5032679;28;20056;-84
2021/08/14 08:45:48;;;;;;;8.05;7.65;;;26.90;50.60;;;;;;5034099;28;20508;-84
2021/08/14 08:48:18;;;;;;;7.85;7.45;;;27.10;50.50;;;;;;5013396;28;20094;-85
2021/08/14 08:50:45;;;;;;;8.35;7.90;;;27.30;50.20;;;;;;5035975;28;20037;-85
2021/08/14 08:53:11;;;;;;;8.63;8.23;;;27.40;50.00;;;;;;5035588;28;20022;-84
2021/08/14 08:55:38;;;;;;;7.60;7.25;;;27.50;49.90;;;;;;5034660;28;20044;-84
2021/08/14 08:58:04;;;;;;;7.85;7.45;;;27.60;49.80;;;;;;5034671;28;20034;-85
2021/08/14 09:00:30;;;;;;;8.25;7.85;;;27.70;49.80;;;;;;5032325;28;20041;-85
2021/08/14 09:03:13;;;;;;;8.32;7.93;;;27.80;49.60;;;;;;5032655;28;20041;-82
2021/08/14 09:06:05;;;;;;;7.38;7.05;;;28.00;49.40;;;;;;5045314;28;20037;-83
2021/08/14 09:08:31;;;;;;;7.85;7.47;;;28.10;49.40;;;;;;5034502;28;20034;-85
2021/08/14 09:11:14;;;;;;;7.97;7.57;;;28.30;49.30;;;;;;5017802;28;20041;-83
2021/08/14 09:14:00;;;;;;;10.32;9.82;;;28.40;49.10;;;;;;5016789;28;20037;-85
2021/08/14 09:16:26;;;;;;;9.73;9.32;;;28.40;49.00;;;;;;5033960;28;20052;-84
2021/08/14 09:18:54;;;;;;;10.68;10.18;;;28.50;49.00;;;;;;5033665;28;20410;-86
2021/08/14 09:21:32;;;;;;;10.82;10.25;;;28.60;49.00;;;;;;5032447;28;20021;-85
2021/08/14 09:24:04;;;;;;;10.30;9.80;;;28.80;48.80;;;;;;5031913;28;20068;-84
2021/08/14 09:26:38;;;;;;;9.73;9.23;;;28.80;48.50;;;;;;5037359;28;20026;-86
2021/08/14 09:29:05;;;;;;;11.05;10.55;;;28.90;48.60;;;;;;5034420;28;20037;-84
2021/08/14 09:31:51;;;;;;;14.27;13.60;;;29.00;48.30;;;;;;5017327;28;20044;-85
2021/08/14 09:34:21;;;;;;;13.27;12.57;;;29.20;48.20;;;;;;5032593;28;20049;-84
2021/08/14 09:37:07;;;;;;;12.23;11.60;;;29.20;48.00;;;;;;5033777;28;20505;-84
2021/08/14 09:39:47;;;;;;;12.13;11.55;;;29.30;48.10;;;;;;5034345;28;20040;-85
2021/08/14 09:42:13;;;;;;;15.00;14.30;;;29.40;48.00;;;;;;5030141;28;20497;-85
2021/08/14 09:44:40;;;;;;;17.15;15.48;;;29.50;47.80;;;;;;5035756;28;20040;-84
2021/08/14 09:47:11;;;;;;;14.65;13.95;;;29.50;47.80;;;;;;5033319;28;20037;-86
2021/08/14 09:49:50;;;;;;;13.35;12.65;;;29.50;47.70;;;;;;5017402;28;20060;-83
2021/08/14 09:52:23;;;;;;;14.35;13.38;;;29.70;47.70;;;;;;5034875;28;20032;-84
2021/08/14 09:54:49;;;;;;;13.40;12.80;;;29.80;47.50;;;;;;5033853;28;20029;-85
2021/08/14 09:57:16;;;;;;;12.93;12.32;;;29.90;47.50;;;;;;5031089;28;20036;-85
2021/08/14 09:59:43;;;;;;;12.40;11.80;;;29.80;47.40;;;;;;5034149;28;20022;-85
2021/08/14 10:02:10;;;;;;;17.73;14.35;;;29.80;47.40;;;;;;5050396;28;20526;-87
2021/08/14 10:04:36;;;;;;;14.60;13.90;;;29.80;47.50;;;;;;5034725;28;20510;-84
2021/08/14 10:07:02;;;;;;;13.32;12.68;;;29.80;47.60;;;;;;5032395;28;20044;-81
2021/08/14 10:09:28;;;;;;;14.35;13.32;;;29.90;47.50;;;;;;5036268;28;20041;-85
2021/08/14 10:11:54;;;;;;;12.05;11.52;;;30.20;47.30;;;;;;5014157;28;20022;-85
2021/08/14 10:14:21;;;;;;;11.85;11.25;;;30.30;47.10;;;;;;5066780;28;20052;-85
2021/08/14 10:16:47;;;;;;;11.88;11.27;;;30.40;46.90;;;;;;5032571;28;20041;-86
2021/08/14 10:19:13;;;;;;;10.13;9.63;;;30.40;46.80;;;;;;5019298;28;20041;-85
2021/08/14 10:21:39;;;;;;;9.98;9.50;;;30.40;46.80;;;;;;5033154;28;20029;-85
2021/08/14 10:24:07;;;;;;;10.00;9.52;;;30.50;46.70;;;;;;5013345;28;20046;-85
2021/08/14 10:26:33;;;;;;;10.55;10.02;;;30.60;46.70;;;;;;5045590;28;20398;-83
2021/08/14 10:28:59;;;;;;;10.55;10.05;;;30.60;46.60;;;;;;5033944;28;20064;-85
2021/08/14 10:31:34;;;;;;;9.02;8.63;;;30.70;46.50;;;;;;5032197;28;20034;-85
2021/08/14 10:34:12;;;;;;;10.88;10.38;;;30.80;46.40;;;;;;5034390;28;20409;-84
2021/08/14 10:36:44;;;;;;;13.23;12.63;;;30.90;46.30;;;;;;5034349;28;20389;-85
2021/08/14 10:39:18;;;;;;;12.15;11.55;;;30.90;46.30;;;;;;5044787;28;20033;-86
2021/08/14 10:41:45;;;;;;;12.77;11.90;;;31.00;46.20;;;;;;5032320;28;20483;-87
2021/08/14 10:44:11;;;;;;;11.82;11.13;;;31.10;46.10;;;;;;5066527;28;20053;-86
2021/08/14 10:46:44;;;;;;;11.43;10.88;;;31.20;45.90;;;;;;5032358;28;20049;-86
2021/08/14 10:49:29;;;;;;;11.00;10.50;;;31.30;45.90;;;;;;5039425;28;20040;-85
2021/08/14 10:51:55;;;;;;;10.90;10.35;;;31.30;45.60;;;;;;5047692;28;20025;-85
2021/08/14 10:54:27;;;;;;;9.55;9.05;;;31.30;45.60;;;;;;5035023;28;20025;-85
2021/08/14 10:56:55;;;;;;;8.55;8.15;;;31.40;45.60;;;;;;5035950;28;20036;-85
2021/08/14 10:59:39;;;;;;;9.73;9.25;;;31.40;46.30;;;;;;5053547;28;20033;-84
2021/08/14 11:02:12;;;;;;;7.90;7.45;;;31.40;45.50;;;;;;5036333;28;20037;-84
2021/08/14 11:04:54;;;;;;;7.97;7.57;;;31.40;45.40;;;;;;5036777;28;20364;-84
2021/08/14 11:07:20;;;;;;;8.27;7.88;;;31.50;45.40;;;;;;5036733;28;20048;-85
2021/08/14 11:09:52;;;;;;;7.47;7.07;;;31.50;45.20;;;;;;5037713;28;20089;-86
2021/08/14 11:12:40;;;;;;;8.48;8.07;;;31.50;45.20;;;;;;5032542;28;20030;-84
2021/08/14 11:15:29;;;;;;;7.85;7.45;;;31.50;45.20;;;;;;5030963;28;20399;-84
2021/08/14 11:18:02;;;;;;;7.70;7.30;;;31.60;45.10;;;;;;5047880;28;20056;-85
2021/08/14 11:20:32;;;;;;;7.75;7.35;;;31.60;45.00;;;;;;5039537;28;20032;-85
2021/08/14 11:22:58;;;;;;;;;;;31.60;44.90;;;;;;5036128;28;20069;-84
2021/08/14 11:25:38;;;;;;;8.18;7.78;;;31.70;44.90;;;;;;5035929;28;19909;-84
2021/08/14 11:28:09;;;;;;;7.90;7.50;;;31.70;44.90;;;;;;5036564;28;20033;-85
2021/08/14 11:30:40;;;;;;;6.70;6.40;;;31.80;44.80;;;;;;5002388;28;20040;-85
2021/08/14 11:33:08;;;;;;;7.82;7.45;;;31.80;44.60;;;;;;5032809;28;20045;-87
2021/08/14 11:35:35;;;;;;;7.63;7.25;;;31.70;44.60;;;;;;5039235;28;20037;-85
2021/08/14 11:38:05;;;;;;;7.53;7.13;;;31.70;44.60;;;;;;5018478;28;20036;-85
2021/08/14 11:40:33;;;;;;;7.57;7.18;;;31.80;44.60;;;;;;5037361;28;20033;-85
2021/08/14 11:43:01;;;;;;;8.18;7.78;;;31.90;44.60;;;;;;5035697;28;20033;-84
2021/08/14 11:45:28;;;;;;;7.68;7.28;;;31.90;44.40;;;;;;5027249;28;20037;-85
2021/08/14 11:48:00;;;;;;;7.97;7.57;;;32.10;44.20;;;;;;5047077;28;20031;-85
2021/08/14 11:50:35;;;;;;;7.95;7.55;;;32.20;44.10;;;;;;5017235;28;20045;-85
2021/08/14 11:53:05;;;;;;;8.80;8.30;;;32.30;44.00;;;;;;5035355;28;20041;-85
2021/08/14 11:55:31;;;;;;;9.70;9.20;;;32.40;43.90;;;;;;5035970;28;20493;-86
2021/08/14 11:57:57;;;;;;;7.55;7.15;;;32.40;43.70;;;;;;5036898;28;20041;-85
2021/08/14 12:00:25;;;;;;;8.57;8.18;;;32.40;43.70;;;;;;5015635;28;20394;-85
2021/08/14 12:03:07;;;;;;;8.75;8.32;;;32.40;43.70;;;;;;5035332;28;20026;-85
2021/08/14 12:05:41;;;;;;;9.35;8.75;;;32.40;43.80;;;;;;5054036;28;20025;-86
2021/08/14 12:08:08;;;;;;;9.48;9.00;;;32.40;43.70;;;;;;5018417;28;20034;-85
2021/08/14 12:10:35;;;;;;;9.15;7.72;;;32.40;43.60;;;;;;5025252;28;20036;-85
2021/08/14 12:13:03;;;;;;;10.20;9.70;;;32.70;43.50;;;;;;5043997;28;20040;-84
2021/08/14 12:15:41;;;;;;;8.30;7.90;;;33.00;43.10;;;;;;5033403;28;20033;-84
2021/08/14 12:18:08;;;;;;;10.02;9.52;;;33.20;43.00;;;;;;5013847;28;20499;-84
2021/08/14 12:20:36;;;;;;;9.00;8.60;;;33.20;42.90;;;;;;5038659;28;20030;-85
2021/08/14 12:23:25;;;;;;;8.77;8.38;;;33.20;42.80;;;;;;5034371;28;20537;-86
2021/08/14 12:25:56;;;;;;;9.15;8.68;;;33.30;42.90;;;;;;5036570;28;20056;-85
2021/08/14 12:28:30;;;;;;;8.70;8.30;;;33.20;42.80;;;;;;5036392;28;20032;-85
2021/08/14 12:30:57;;;;;;;8.32;7.93;;;33.20;42.80;;;;;;5036070;28;20033;-85
2021/08/14 12:33:24;;;;;;;7.18;6.78;;;33.20;42.90;;;;;;5030860;28;20041;-86
2021/08/14 12:35:57;;;;;;;7.47;7.18;;;33.30;42.60;;;;;;5050946;28;20370;-85
2021/08/14 12:38:24;;;;;;;8.32;7.93;;;33.30;42.60;;;;;;5035814;28;20029;-85
2021/08/14 12:40:50;;;;;;;8.35;7.95;;;33.20;42.60;;;;;;5032922;28;20034;-85
2021/08/14 12:43:17;;;;;;;7.95;7.55;;;33.20;42.80;;;;;;5034043;28;20050;-85
2021/08/14 12:45:43;;;;;;;7.90;7.43;;;33.20;42.90;;;;;;5035639;28;20025;-85
2021/08/14 12:48:12;;;;;;;6.97;6.68;;;33.20;42.80;;;;;;5029752;28;20097;-85